Time;durP1;ratioP1;P1;durP2;ratioP2;P2;SDS_P1;SDS_P2;PMS_P1;PMS_P2;Temp;Humidity;BMP_temperature;BMP_pressure;BME280_temperature;BME280_humidity;BME280_pressure;Samples;Min_cycle;Max_cycle;Signal;HPM_P1;HPM_P2
2022/07/10 06:25:37;;;;;;;;;;;;;;;;;;5122382;27;20327;-62
2022/07/10 06:28:04;;;;;;;6.45;1.70;;;;;;;;;;5113941;27;46836;-64
2022/07/10 06:30:30;;;;;;;5.63;1.75;;;;;;;;;;5112650;27;20450;-64
2022/07/10 06:32:56;;;;;;;6.97;1.90;;;;;;;;;;5101553;27;20048;-63
2022/07/10 06:35:22;;;;;;;8.15;2.05;;;;;;;;;;5108532;27;20055;-63
2022/07/10 06:37:49;;;;;;;5.63;1.52;;;;;;;;;;5104180;27;20056;-63
2022/07/10 06:40:15;;;;;;;6.97;1.98;;;;;;;;;;5087654;27;20135;-63
2022/07/10 06:42:42;;;;;;;10.77;1.80;;;;;;;;;;5100056;27;20055;-64
2022/07/10 06:45:10;;;;;;;13.00;2.53;;;;;;;;;;5108837;27;20052;-63
2022/07/10 06:50:24;;;;;;;5.85;1.48;;;;;;;;;;5088368;28;20057;-64
2022/07/10 06:52:51;;;;;;;8.82;2.40;;;;;;;;;;5110177;27;20414;-64
2022/07/10 06:55:20;;;;;;;6.78;1.83;;;;;;;;;;5129492;27;20131;-63
2022/07/10 06:57:46;;;;;;;10.52;2.13;;;;;;;;;;5094314;27;20049;-64
2022/07/10 07:00:13;;;;;;;5.20;1.70;;;;;;;;;;5109752;27;20052;-63
2022/07/10 07:02:39;;;;;;;6.45;1.70;;;;;;;;;;5108329;28;20076;-64
2022/07/10 07:05:06;;;;;;;7.35;2.25;;;;;;;;;;5106384;27;20082;-64
2022/07/10 07:07:33;;;;;;;4.97;1.67;;;;;;;;;;5107880;28;20056;-63
2022/07/10 07:09:59;;;;;;;9.45;2.05;;;;;;;;;;5108239;28;20052;-64
2022/07/10 07:12:26;;;;;;;5.38;1.60;;;;;;;;;;5106245;28;20088;-65
2022/07/10 07:14:52;;;;;;;6.80;1.98;;;;;;;;;;5107075;28;20052;-64
2022/07/10 07:17:22;;;;;;;5.50;1.73;;;;;;;;;;5107272;28;20147;-64
2022/07/10 07:25:18;;;;;;;6.90;1.65;;;;;;;;;;5102551;28;20503;-64
2022/07/10 07:27:45;;;;;;;3.47;1.15;;;;;;;;;;5108360;28;20590;-64
2022/07/10 07:30:14;;;;;;;4.85;1.75;;;;;;;;;;5106870;27;20044;-64
2022/07/10 07:32:41;;;;;;;9.25;2.00;;;;;;;;;;5105542;28;20061;-64
2022/07/10 07:35:08;;;;;;;4.32;1.42;;;;;;;;;;5103594;28;20536;-63
2022/07/10 07:37:36;;;;;;;3.97;1.40;;;;;;;;;;5093290;28;20087;-64
2022/07/10 07:40:04;;;;;;;5.07;1.92;;;;;;;;;;5092536;28;20147;-64
2022/07/10 07:42:30;;;;;;;5.43;2.47;;;;;;;;;;5093790;28;20049;-64
2022/07/10 07:44:56;;;;;;;9.20;1.65;;;;;;;;;;5093350;28;20140;-63
2022/07/10 07:47:23;;;;;;;7.97;1.90;;;;;;;;;;5092945;28;20173;-63
2022/07/10 07:49:49;;;;;;;5.78;1.65;;;;;;;;;;5093557;28;20055;-63
2022/07/10 07:52:15;;;;;;;4.90;1.52;;;;;;;;;;5093820;28;20056;-64
2022/07/10 07:54:42;;;;;;;4.75;1.88;;;;;;;;;;5093028;28;20076;-63
2022/07/10 07:57:08;;;;;;;6.75;2.13;;;;;;;;;;5092063;28;20057;-63
2022/07/10 07:59:34;;;;;;;4.22;1.63;;;;;;;;;;5079618;28;20555;-64
2022/07/10 08:02:01;;;;;;;5.93;1.58;;;;;;;;;;5092986;28;20059;-65
2022/07/10 08:04:27;;;;;;;4.95;1.20;;;;;;;;;;5092938;28;20053;-65
2022/07/10 08:06:53;;;;;;;3.85;1.58;;;;;;;;;;5093813;28;20048;-64
2022/07/10 08:09:20;;;;;;;4.93;1.80;;;;;;;;;;5094070;28;20148;-64
2022/07/10 08:11:46;;;;;;;4.35;1.40;;;;;;;;;;5107293;28;20058;-63
2022/07/10 08:14:14;;;;;;;4.90;2.00;;;;;;;;;;5102645;27;20511;-65
2022/07/10 08:16:40;;;;;;;5.03;1.52;;;;;;;;;;5091160;28;20083;-64
2022/07/10 08:19:07;;;;;;;5.45;1.70;;;;;;;;;;5094073;28;20056;-65
2022/07/10 08:21:34;;;;;;;7.63;1.98;;;;;;;;;;5093869;28;20045;-65
2022/07/10 08:24:00;;;;;;;3.80;1.50;;;;;;;;;;5093761;28;20501;-65
2022/07/10 08:26:26;;;;;;;7.55;1.77;;;;;;;;;;5094282;28;20131;-65
2022/07/10 08:28:53;;;;;;;3.85;1.40;;;;;;;;;;5093136;28;20132;-65
2022/07/10 08:31:19;;;;;;;3.50;1.25;;;;;;;;;;5093546;28;20056;-66
2022/07/10 08:33:46;;;;;;;6.60;2.00;;;;;;;;;;5094122;28;20060;-64
2022/07/10 08:36:12;;;;;;;3.70;1.40;;;;;;;;;;5093020;28;20080;-65
2022/07/10 08:38:58;;;;;;;4.88;1.33;;;;;;;;;;5093255;28;20048;-63
2022/07/10 08:41:26;;;;;;;2.95;1.42;;;;;;;;;;5092226;28;20047;-64
2022/07/10 08:43:52;;;;;;;6.75;2.40;;;;;;;;;;5093131;28;20143;-65
2022/07/10 08:46:18;;;;;;;11.05;1.88;;;;;;;;;;5092320;28;20053;-65
2022/07/10 08:48:48;;;;;;;6.80;1.75;;;;;;;;;;5091737;28;20955;-65
2022/07/10 08:51:25;;;;;;;5.80;1.63;;;;;;;;;;5092746;28;20179;-66
2022/07/10 08:53:51;;;;;;;5.30;1.55;;;;;;;;;;5093396;28;20053;-66
2022/07/10 08:56:18;;;;;;;4.60;1.40;;;;;;;;;;5093091;28;20049;-67
2022/07/10 08:58:44;;;;;;;5.68;1.35;;;;;;;;;;5093140;28;20053;-68
2022/07/10 09:01:10;;;;;;;3.92;1.60;;;;;;;;;;5091785;28;20049;-66
2022/07/10 09:03:38;;;;;;;3.40;1.38;;;;;;;;;;5092262;28;20084;-65
2022/07/10 09:06:04;;;;;;;4.75;1.58;;;;;;;;;;5092973;28;20057;-65
2022/07/10 09:08:32;;;;;;;4.75;2.13;;;;;;;;;;5092336;28;20051;-66
2022/07/10 09:11:15;;;;;;;5.72;1.27;;;;;;;;;;5090897;28;20214;-66
2022/07/10 09:13:48;;;;;;;2.20;1.38;;;;;;;;;;5093246;28;20488;-65
2022/07/10 09:16:28;;;;;;;5.43;1.42;;;;;;;;;;5077707;28;20570;-66
2022/07/10 09:18:55;;;;;;;3.67;1.30;;;;;;;;;;5073265;28;20493;-66
2022/07/10 09:21:22;;;;;;;3.45;1.25;;;;;;;;;;5072266;28;20053;-65
2022/07/10 09:23:58;;;;;;;3.97;1.63;;;;;;;;;;5072521;28;20499;-65
2022/07/10 09:26:24;;;;;;;6.15;1.45;;;;;;;;;;5072469;28;20044;-65
2022/07/10 09:29:04;;;;;;;2.38;1.40;;;;;;;;;;5072234;28;20136;-65
2022/07/10 09:31:47;;;;;;;6.63;1.83;;;;;;;;;;5089321;28;20058;-66
2022/07/10 09:34:13;;;;;;;4.35;1.35;;;;;;;;;;5091216;28;20488;-66
2022/07/10 09:36:39;;;;;;;4.32;1.40;;;;;;;;;;5092431;28;20059;-67
2022/07/10 09:39:06;;;;;;;3.30;1.42;;;;;;;;;;5087513;28;20520;-66
2022/07/10 09:41:32;;;;;;;1.55;1.20;;;;;;;;;;5085033;28;20062;-66
2022/07/10 09:44:03;;;;;;;3.65;1.55;;;;;;;;;;5074791;28;20060;-65
2022/07/10 09:46:34;;;;;;;4.10;1.30;;;;;;;;;;5092621;28;20057;-66
2022/07/10 09:49:00;;;;;;;4.20;1.13;;;;;;;;;;5092094;28;20052;-66
2022/07/10 09:51:29;;;;;;;5.00;1.45;;;;;;;;;;5092205;28;20140;-66
2022/07/10 09:53:56;;;;;;;5.00;1.60;;;;;;;;;;5092478;28;20138;-66
2022/07/10 09:56:23;;;;;;;5.82;1.63;;;;;;;;;;5092543;28;20049;-65
2022/07/10 09:58:52;;;;;;;4.10;1.30;;;;;;;;;;5092600;28;20052;-64
2022/07/10 10:01:19;;;;;;;1.48;1.30;;;;;;;;;;5091792;28;20063;-65
2022/07/10 10:03:47;;;;;;;5.15;1.58;;;;;;;;;;5091926;28;20496;-66
2022/07/10 10:06:16;;;;;;;5.38;1.73;;;;;;;;;;5091011;28;20059;-66
2022/07/10 10:08:50;;;;;;;4.25;1.65;;;;;;;;;;5092537;28;20059;-66
2022/07/10 10:11:22;;;;;;;2.55;1.30;;;;;;;;;;5090380;28;20475;-66
2022/07/10 10:13:49;;;;;;;5.65;1.42;;;;;;;;;;5092326;28;20531;-66
2022/07/10 10:16:17;;;;;;;3.67;1.60;;;;;;;;;;5087072;28;20078;-67
2022/07/10 10:21:29;;;;;;;2.40;1.30;;;;;;;;;;5092193;28;20053;-67
2022/07/10 10:23:56;;;;;;;2.85;1.50;;;;;;;;;;5092117;28;20140;-66
2022/07/10 10:26:23;;;;;;;3.80;1.40;;;;;;;;;;5091266;28;20052;-67
2022/07/10 10:28:51;;;;;;;3.38;1.45;;;;;;;;;;5091787;28;20060;-66
2022/07/10 10:31:18;;;;;;;7.25;2.22;;;;;;;;;;5091745;28;20053;-66
2022/07/10 10:33:45;;;;;;;1.77;1.30;;;;;;;;;;5090870;28;20056;-68
2022/07/10 10:36:13;;;;;;;3.75;1.50;;;;;;;;;;5089659;28;20525;-66
2022/07/10 10:38:59;;;;;;;4.15;1.70;;;;;;;;;;5091881;28;20101;-66
2022/07/10 10:41:26;;;;;;;;;;;;;;;;;;5090732;28;20049;-66
2022/07/10 10:46:36;;;;;;;4.70;1.73;;;;;;;;;;5091769;28;20144;-66
2022/07/10 10:49:06;;;;;;;5.57;1.50;;;;;;;;;;5077569;28;20057;-67
2022/07/10 10:51:56;;;;;;;2.58;1.48;;;;;;;;;;5071427;28;20057;-66
2022/07/10 10:54:22;;;;;;;2.67;1.40;;;;;;;;;;5071554;28;20494;-65
2022/07/10 10:57:07;;;;;;;1.73;1.40;;;;;;;;;;5076699;28;20055;-66
2022/07/10 10:59:53;;;;;;;4.00;1.70;;;;;;;;;;5090990;28;20049;-66
2022/07/10 11:02:20;;;;;;;2.92;1.77;;;;;;;;;;5091916;28;20053;-67
2022/07/10 11:04:46;;;;;;;3.95;1.58;;;;;;;;;;5091395;28;20127;-66
2022/07/10 11:07:33;;;;;;;3.28;1.30;;;;;;;;;;5090605;28;20055;-67
2022/07/10 11:10:18;;;;;;;4.20;2.22;;;;;;;;;;5091194;28;20063;-66
2022/07/10 11:12:56;;;;;;;2.88;1.13;;;;;;;;;;5094138;28;20055;-68
2022/07/10 11:15:23;;;;;;;5.35;1.73;;;;;;;;;;5095059;28;20492;-67
2022/07/10 11:17:50;;;;;;;3.30;1.55;;;;;;;;;;5094771;28;20055;-66
2022/07/10 11:20:17;;;;;;;2.13;1.50;;;;;;;;;;5093768;28;20139;-66
2022/07/10 11:22:49;;;;;;;2.28;1.15;;;;;;;;;;5094205;28;20059;-66
2022/07/10 11:25:16;;;;;;;5.78;1.30;;;;;;;;;;5091651;28;20147;-66
2022/07/10 11:27:42;;;;;;;1.60;1.30;;;;;;;;;;5084516;28;20056;-66
2022/07/10 11:30:09;;;;;;;4.22;1.90;;;;;;;;;;5089380;28;20072;-66
2022/07/10 11:32:36;;;;;;;3.55;1.38;;;;;;;;;;5074683;28;20049;-66
2022/07/10 11:35:05;;;;;;;7.82;1.55;;;;;;;;;;5074040;28;20053;-65
2022/07/10 11:37:31;;;;;;;4.38;1.35;;;;;;;;;;5093297;28;20071;-66
2022/07/10 11:40:15;;;;;;;3.20;1.40;;;;;;;;;;5095055;28;20049;-66
2022/07/10 11:42:52;;;;;;;3.33;1.50;;;;;;;;;;5086199;28;20054;-66
2022/07/10 11:45:25;;;;;;;4.85;1.50;;;;;;;;;;5093243;28;20055;-69
2022/07/10 11:47:51;;;;;;;2.80;1.40;;;;;;;;;;5080402;28;20496;-66
2022/07/10 11:50:17;;;;;;;6.13;1.48;;;;;;;;;;5094169;28;20059;-67
2022/07/10 11:52:45;;;;;;;5.85;1.35;;;;;;;;;;5089503;28;20530;-67
2022/07/10 11:55:16;;;;;;;6.32;1.67;;;;;;;;;;5093826;28;20049;-66
2022/07/10 11:57:44;;;;;;;2.63;1.27;;;;;;;;;;5091020;28;20053;-67
2022/07/10 12:00:29;;;;;;;3.25;1.25;;;;;;;;;;5088973;28;20551;-67
2022/07/10 12:02:57;;;;;;;2.90;1.52;;;;;;;;;;5090704;28;20078;-66
2022/07/10 12:05:33;;;;;;;2.08;1.13;;;;;;;;;;5094009;28;20049;-66
2022/07/10 12:08:02;;;;;;;4.20;1.15;;;;;;;;;;5094181;28;20057;-66
2022/07/10 12:10:29;;;;;;;3.45;1.25;;;;;;;;;;5092123;28;20051;-65
2022/07/10 12:13:04;;;;;;;3.08;1.00;;;;;;;;;;5092658;28;20084;-65
2022/07/10 12:15:31;;;;;;;;;;;;;;;;;;5094238;28;20372;-64
2022/07/10 12:17:57;;;;;;;4.68;1.20;;;;;;;;;;5093475;28;43562;-64
2022/07/10 12:20:23;;;;;;;1.58;0.80;;;;;;;;;;5093454;28;20056;-66
2022/07/10 12:22:50;;;;;;;7.07;1.48;;;;;;;;;;5092721;28;20151;-65
2022/07/10 12:25:16;;;;;;;4.72;1.35;;;;;;;;;;5093719;28;20064;-65
2022/07/10 12:27:43;;;;;;;5.57;1.45;;;;;;;;;;5086240;28;20400;-64
2022/07/10 12:30:16;;;;;;;5.13;1.38;;;;;;;;;;5093403;28;20506;-65
2022/07/10 12:32:42;;;;;;;0.98;0.85;;;;;;;;;;5092413;28;20053;-64
2022/07/10 12:35:14;;;;;;;1.77;1.10;;;;;;;;;;5093737;28;20637;-65
2022/07/10 12:37:48;;;;;;;3.50;1.23;;;;;;;;;;5092876;28;20139;-64
2022/07/10 12:40:31;;;;;;;3.63;1.50;;;;;;;;;;5093264;28;20591;-66
2022/07/10 12:43:01;;;;;;;1.02;0.73;;;;;;;;;;5092337;28;20472;-66
2022/07/10 12:45:27;;;;;;;2.50;1.25;;;;;;;;;;5089204;28;20056;-64
2022/07/10 12:47:54;;;;;;;3.67;1.20;;;;;;;;;;5093278;28;20139;-65
2022/07/10 12:50:20;;;;;;;2.80;1.10;;;;;;;;;;5092228;28;20052;-65
2022/07/10 12:52:46;;;;;;;2.22;0.93;;;;;;;;;;5091208;28;20052;-66
2022/07/10 12:55:18;;;;;;;1.77;1.10;;;;;;;;;;5093082;28;20072;-66
2022/07/10 12:57:48;;;;;;;3.58;1.35;;;;;;;;;;5093255;28;20083;-66
2022/07/10 13:00:15;;;;;;;2.72;1.60;;;;;;;;;;5092924;28;20143;-65
2022/07/10 13:02:41;;;;;;;2.03;1.00;;;;;;;;;;5093253;28;20055;-65
2022/07/10 13:05:09;;;;;;;1.55;1.17;;;;;;;;;;5091410;28;20052;-67
2022/07/10 13:07:36;;;;;;;3.30;0.88;;;;;;;;;;5093128;28;20059;-65
2022/07/10 13:10:03;;;;;;;5.88;2.08;;;;;;;;;;5088474;28;20101;-66
2022/07/10 13:12:32;;;;;;;5.32;1.25;;;;;;;;;;5090452;28;20053;-65
2022/07/10 13:14:59;;;;;;;2.60;1.10;;;;;;;;;;5092830;28;20098;-65
2022/07/10 13:17:25;;;;;;;1.88;1.10;;;;;;;;;;5091566;28;20888;-65
2022/07/10 13:19:51;;;;;;;3.08;1.40;;;;;;;;;;5092456;28;20049;-66
2022/07/10 13:22:20;;;;;;;2.78;1.00;;;;;;;;;;5091750;28;20052;-66
2022/07/10 13:24:46;;;;;;;2.47;1.08;;;;;;;;;;5086775;28;20156;-65
2022/07/10 13:27:14;;;;;;;2.95;1.33;;;;;;;;;;5091644;28;20056;-65
2022/07/10 13:29:40;;;;;;;5.70;1.20;;;;;;;;;;5088411;28;21174;-65
2022/07/10 13:32:10;;;;;;;3.65;1.17;;;;;;;;;;5092089;28;20048;-65
2022/07/10 13:34:36;;;;;;;3.90;1.42;;;;;;;;;;5091589;28;20136;-66
2022/07/10 13:37:04;;;;;;;2.35;1.15;;;;;;;;;;5092567;28;20496;-66
2022/07/10 13:39:32;;;;;;;1.55;1.08;;;;;;;;;;5092754;28;20052;-66
2022/07/10 13:41:59;;;;;;;5.20;1.50;;;;;;;;;;5091814;28;20515;-65
2022/07/10 13:44:25;;;;;;;3.28;0.93;;;;;;;;;;5091424;28;20062;-65
2022/07/10 13:46:51;;;;;;;5.32;1.77;;;;;;;;;;5091364;28;20144;-64
2022/07/10 13:49:18;;;;;;;4.00;1.67;;;;;;;;;;5090835;28;20503;-65
2022/07/10 13:51:44;;;;;;;2.15;1.00;;;;;;;;;;5091736;28;20049;-66
2022/07/10 13:54:11;;;;;;;3.00;1.10;;;;;;;;;;5092065;28;20056;-65
2022/07/10 13:56:37;;;;;;;3.00;1.20;;;;;;;;;;5091644;28;20052;-66
2022/07/10 13:59:03;;;;;;;3.30;0.95;;;;;;;;;;5090921;28;20530;-65
2022/07/10 14:01:30;;;;;;;2.45;1.05;;;;;;;;;;5099122;28;20059;-66
2022/07/10 14:03:56;;;;;;;1.67;1.17;;;;;;;;;;5091533;28;20052;-65
2022/07/10 14:06:22;;;;;;;2.67;1.30;;;;;;;;;;5091498;28;20071;-66
2022/07/10 14:08:51;;;;;;;1.90;1.00;;;;;;;;;;5091884;28;20223;-65
2022/07/10 14:11:17;;;;;;;3.72;1.60;;;;;;;;;;5090717;28;20502;-69
2022/07/10 14:13:44;;;;;;;5.80;1.88;;;;;;;;;;5123800;27;20193;-68
2022/07/10 14:16:10;;;;;;;2.58;1.20;;;;;;;;;;5090875;28;20052;-67
2022/07/10 14:18:44;;;;;;;3.50;1.20;;;;;;;;;;5091927;28;20144;-64
2022/07/10 14:21:13;;;;;;;4.25;1.58;;;;;;;;;;5091821;28;20052;-65
2022/07/10 14:23:43;;;;;;;3.25;1.33;;;;;;;;;;5090980;28;20110;-64
2022/07/10 14:26:11;;;;;;;2.35;1.10;;;;;;;;;;5090705;28;20057;-65
2022/07/10 14:28:38;;;;;;;7.38;1.25;;;;;;;;;;5091400;28;20385;-64
2022/07/10 14:31:05;;;;;;;4.10;1.30;;;;;;;;;;5091505;28;20051;-65
2022/07/10 14:33:32;;;;;;;2.78;1.60;;;;;;;;;;5090007;28;20057;-64
2022/07/10 14:35:58;;;;;;;3.20;1.73;;;;;;;;;;5091111;28;20056;-65
2022/07/10 14:38:25;;;;;;;4.43;1.52;;;;;;;;;;5083001;28;20061;-66
2022/07/10 14:40:52;;;;;;;7.68;1.90;;;;;;;;;;5081422;28;20052;-66
2022/07/10 14:43:20;;;;;;;4.00;1.08;;;;;;;;;;5100811;28;20062;-64
2022/07/10 14:45:46;;;;;;;2.33;1.35;;;;;;;;;;5089575;28;20048;-65
2022/07/10 14:48:19;;;;;;;2.90;1.20;;;;;;;;;;5093881;27;20052;-64
2022/07/10 14:50:45;;;;;;;5.30;1.40;;;;;;;;;;5088250;28;20140;-65
2022/07/10 14:53:11;;;;;;;2.58;1.45;;;;;;;;;;5085937;28;20060;-65
2022/07/10 14:55:38;;;;;;;4.93;1.60;;;;;;;;;;5094849;28;20156;-66
2022/07/10 14:58:04;;;;;;;4.40;1.35;;;;;;;;;;5093945;28;20136;-64
2022/07/10 15:00:30;;;;;;;2.35;1.45;;;;;;;;;;5094894;28;20143;-66
2022/07/10 15:02:57;;;;;;;4.05;1.38;;;;;;;;;;5094489;28;20048;-64
2022/07/10 15:05:29;;;;;;;4.65;1.73;;;;;;;;;;5093701;28;20485;-64
2022/07/10 15:07:55;;;;;;;4.13;1.35;;;;;;;;;;5090808;28;20052;-64
2022/07/10 15:10:22;;;;;;;4.88;1.60;;;;;;;;;;5078758;28;20060;-65
2022/07/10 15:12:48;;;;;;;5.45;1.58;;;;;;;;;;5078605;28;20128;-64
2022/07/10 15:15:16;;;;;;;5.97;1.60;;;;;;;;;;5074428;28;20131;-65
2022/07/10 15:17:44;;;;;;;5.10;1.17;;;;;;;;;;5074492;28;20048;-64
2022/07/10 15:20:13;;;;;;;3.97;1.60;;;;;;;;;;5074304;28;20053;-64
2022/07/10 15:22:40;;;;;;;2.28;1.35;;;;;;;;;;5074764;28;20056;-65
2022/07/10 15:25:07;;;;;;;2.92;1.67;;;;;;;;;;5086873;28;20143;-64
2022/07/10 15:27:34;;;;;;;2.53;1.52;;;;;;;;;;5094795;28;20063;-65
2022/07/10 15:30:01;;;;;;;2.58;1.42;;;;;;;;;;5093231;28;20053;-66
2022/07/10 15:32:27;;;;;;;6.40;1.40;;;;;;;;;;5084621;28;20139;-65
2022/07/10 15:34:53;;;;;;;2.25;1.70;;;;;;;;;;5080514;28;20061;-66
2022/07/10 15:37:20;;;;;;;3.33;1.70;;;;;;;;;;5084786;28;20080;-65
2022/07/10 15:39:47;;;;;;;2.80;1.52;;;;;;;;;;5094431;28;20060;-64
2022/07/10 15:42:13;;;;;;;4.38;1.73;;;;;;;;;;5091570;28;20052;-66
2022/07/10 15:44:40;;;;;;;2.40;1.23;;;;;;;;;;5093819;28;20059;-65
2022/07/10 15:47:06;;;;;;;4.78;1.50;;;;;;;;;;5093380;28;20052;-65
2022/07/10 15:49:33;;;;;;;6.63;1.80;;;;;;;;;;5092951;28;20053;-65
2022/07/10 15:51:59;;;;;;;5.93;1.75;;;;;;;;;;5091179;28;20226;-65
2022/07/10 15:54:26;;;;;;;6.25;1.63;;;;;;;;;;5085712;28;20175;-66
2022/07/10 15:56:54;;;;;;;4.93;1.63;;;;;;;;;;5091360;28;20048;-66
2022/07/10 15:59:22;;;;;;;3.40;1.48;;;;;;;;;;5091005;28;20056;-65
2022/07/10 16:01:53;;;;;;;4.80;1.45;;;;;;;;;;5086460;28;20069;-67
2022/07/10 16:04:19;;;;;;;3.17;1.95;;;;;;;;;;5081333;28;20400;-66
2022/07/10 16:06:48;;;;;;;8.73;2.20;;;;;;;;;;5088068;28;20079;-65
2022/07/10 16:09:14;;;;;;;6.93;1.80;;;;;;;;;;5092761;28;20053;-67
2022/07/10 16:11:42;;;;;;;4.68;1.90;;;;;;;;;;5077026;28;20879;-67
2022/07/10 16:14:08;;;;;;;6.55;1.83;;;;;;;;;;5087015;28;20057;-66
2022/07/10 16:16:35;;;;;;;6.68;1.80;;;;;;;;;;5091184;28;20514;-68
2022/07/10 16:19:02;;;;;;;4.28;1.77;;;;;;;;;;5092419;28;20057;-67
2022/07/10 16:21:29;;;;;;;3.83;1.77;;;;;;;;;;5077998;28;20551;-67
2022/07/10 16:23:55;;;;;;;6.90;1.88;;;;;;;;;;5091148;28;20049;-67
2022/07/10 16:26:22;;;;;;;3.53;1.77;;;;;;;;;;5088466;28;20057;-67
2022/07/10 16:28:49;;;;;;;4.22;2.17;;;;;;;;;;5093223;28;20070;-66
2022/07/10 16:31:16;;;;;;;5.55;1.55;;;;;;;;;;5090361;28;20131;-66
2022/07/10 16:33:43;;;;;;;3.70;1.42;;;;;;;;;;5091458;28;20110;-67
2022/07/10 16:36:10;;;;;;;3.38;1.77;;;;;;;;;;5096235;28;20511;-66
2022/07/10 16:38:36;;;;;;;9.18;1.85;;;;;;;;;;5088035;28;20040;-66
2022/07/10 16:41:03;;;;;;;5.28;1.80;;;;;;;;;;5086169;28;20058;-67
2022/07/10 16:43:30;;;;;;;5.15;1.77;;;;;;;;;;5084167;28;20131;-67
2022/07/10 16:45:57;;;;;;;4.35;1.90;;;;;;;;;;5093661;28;20145;-67
2022/07/10 16:48:24;;;;;;;3.58;2.10;;;;;;;;;;5093117;28;20056;-66
2022/07/10 16:50:50;;;;;;;2.17;1.60;;;;;;;;;;5091710;28;20080;-65
2022/07/10 16:53:17;;;;;;;5.78;1.80;;;;;;;;;;5091026;28;20084;-67
2022/07/10 16:55:44;;;;;;;6.53;1.67;;;;;;;;;;5083004;28;20057;-67
2022/07/10 16:58:11;;;;;;;2.42;1.60;;;;;;;;;;5089609;28;20052;-66
2022/07/10 17:00:37;;;;;;;3.67;1.85;;;;;;;;;;5088376;28;20309;-66
2022/07/10 17:03:03;;;;;;;7.13;2.00;;;;;;;;;;5088174;28;20131;-66
2022/07/10 17:05:30;;;;;;;3.05;1.60;;;;;;;;;;5074521;28;20053;-67
2022/07/10 17:07:56;;;;;;;3.05;1.50;;;;;;;;;;5104109;27;20057;-66
2022/07/10 17:10:22;;;;;;;3.92;1.83;;;;;;;;;;5086965;28;20125;-67
2022/07/10 17:12:55;;;;;;;3.83;1.50;;;;;;;;;;5091628;28;20566;-67
2022/07/10 17:15:23;;;;;;;4.53;1.70;;;;;;;;;;5082150;28;20176;-66
2022/07/10 17:17:49;;;;;;;4.22;1.63;;;;;;;;;;5086341;28;20536;-67
2022/07/10 17:20:16;;;;;;;6.07;2.08;;;;;;;;;;5071657;28;20053;-66
2022/07/10 17:22:44;;;;;;;6.50;2.40;;;;;;;;;;5079656;28;20048;-67
2022/07/10 17:25:12;;;;;;;8.20;1.90;;;;;;;;;;5080532;28;20151;-66
2022/07/10 17:27:38;;;;;;;5.88;1.80;;;;;;;;;;5082264;28;20499;-66
2022/07/10 17:30:05;;;;;;;4.60;2.13;;;;;;;;;;5092675;28;20063;-64
2022/07/10 17:32:31;;;;;;;5.40;2.03;;;;;;;;;;5092566;28;20155;-65
2022/07/10 17:34:57;;;;;;;3.60;1.73;;;;;;;;;;5080043;28;20056;-66
2022/07/10 17:37:24;;;;;;;7.75;1.90;;;;;;;;;;5088663;28;20053;-65
2022/07/10 17:39:51;;;;;;;3.53;1.65;;;;;;;;;;5091824;28;20059;-65
2022/07/10 17:42:18;;;;;;;2.97;1.65;;;;;;;;;;5093560;28;20056;-66
2022/07/10 17:44:44;;;;;;;3.17;1.60;;;;;;;;;;5087619;28;20053;-66
2022/07/10 17:47:10;;;;;;;5.05;1.70;;;;;;;;;;5092735;28;20496;-65
2022/07/10 17:49:36;;;;;;;4.65;1.90;;;;;;;;;;5086833;28;20140;-66
2022/07/10 17:52:03;;;;;;;2.40;1.60;;;;;;;;;;5091953;28;20060;-66
2022/07/10 17:54:29;;;;;;;6.00;1.83;;;;;;;;;;5088010;28;20063;-66
2022/07/10 17:56:56;;;;;;;2.50;1.85;;;;;;;;;;5087735;28;20140;-67
2022/07/10 17:59:22;;;;;;;3.25;1.42;;;;;;;;;;5086326;28;20053;-66
2022/07/10 18:01:48;;;;;;;6.00;1.90;;;;;;;;;;5091566;28;20139;-66
2022/07/10 18:04:15;;;;;;;4.10;1.55;;;;;;;;;;5091038;28;20041;-66
2022/07/10 18:06:41;;;;;;;3.97;1.70;;;;;;;;;;5089742;28;20145;-65
2022/07/10 18:09:08;;;;;;;4.38;2.10;;;;;;;;;;5089036;28;20071;-65
2022/07/10 18:11:44;;;;;;;4.07;1.80;;;;;;;;;;5090650;28;20060;-66
2022/07/10 18:14:11;;;;;;;4.03;1.77;;;;;;;;;;5090567;28;20072;-65
2022/07/10 18:16:37;;;;;;;4.43;2.03;;;;;;;;;;5090667;28;20139;-66
2022/07/10 18:19:03;;;;;;;4.95;2.90;;;;;;;;;;5085106;28;20059;-65
2022/07/10 18:21:30;;;;;;;4.40;2.38;;;;;;;;;;5091939;28;20444;-65
2022/07/10 18:23:59;;;;;;;2.03;1.70;;;;;;;;;;5091357;28;20148;-65
2022/07/10 18:26:29;;;;;;;4.45;2.70;;;;;;;;;;5091644;28;20057;-64
2022/07/10 18:28:58;;;;;;;2.65;1.63;;;;;;;;;;5090791;28;20044;-67
2022/07/10 18:31:25;;;;;;;4.47;1.92;;;;;;;;;;5082861;28;20082;-66
2022/07/10 18:36:37;;;;;;;4.25;1.92;;;;;;;;;;5091518;28;20536;-65
2022/07/10 18:39:07;;;;;;;6.85;2.42;;;;;;;;;;5091179;28;21009;-65
2022/07/10 18:41:42;;;;;;;6.28;2.42;;;;;;;;;;5088144;28;20053;-65
2022/07/10 18:44:09;;;;;;;6.72;2.10;;;;;;;;;;5098912;28;20044;-65
2022/07/10 18:46:35;;;;;;;5.22;2.15;;;;;;;;;;5090541;28;20068;-67
2022/07/10 18:49:01;;;;;;;6.20;2.55;;;;;;;;;;5090839;28;20114;-65
2022/07/10 18:51:28;;;;;;;8.13;2.28;;;;;;;;;;5090262;28;20526;-65
2022/07/10 18:53:54;;;;;;;7.82;2.53;;;;;;;;;;5091096;28;20053;-65
2022/07/10 18:56:21;;;;;;;7.75;2.40;;;;;;;;;;5089735;28;20496;-64
2022/07/10 18:58:47;;;;;;;7.45;2.10;;;;;;;;;;5092733;28;20056;-65
2022/07/10 19:01:14;;;;;;;5.43;2.15;;;;;;;;;;5089015;28;20063;-65
2022/07/10 19:03:40;;;;;;;8.77;2.58;;;;;;;;;;5081753;28;20147;-66
2022/07/10 19:06:07;;;;;;;5.30;2.92;;;;;;;;;;5087932;28;20143;-65
2022/07/10 19:08:34;;;;;;;4.72;2.63;;;;;;;;;;5086103;28;20132;-64
2022/07/10 19:11:00;;;;;;;8.48;3.25;;;;;;;;;;5091614;28;20056;-67
2022/07/10 19:13:26;;;;;;;3.75;2.30;;;;;;;;;;5088772;28;20052;-65
2022/07/10 19:15:53;;;;;;;4.25;2.30;;;;;;;;;;5089782;28;20049;-66
2022/07/10 19:18:20;;;;;;;2.42;1.80;;;;;;;;;;5087868;28;20601;-65
2022/07/10 19:20:46;;;;;;;5.57;2.38;;;;;;;;;;5097758;28;20063;-64
2022/07/10 19:23:16;;;;;;;6.15;1.88;;;;;;;;;;5089115;28;20048;-64
2022/07/10 19:25:43;;;;;;;8.23;2.20;;;;;;;;;;5090147;28;20056;-65
2022/07/10 19:28:09;;;;;;;5.68;2.75;;;;;;;;;;5093099;28;20060;-66
2022/07/10 19:30:36;;;;;;;4.53;2.10;;;;;;;;;;5091397;28;20563;-65
2022/07/10 19:33:03;;;;;;;6.22;2.28;;;;;;;;;;5086489;28;20156;-65
2022/07/10 19:35:30;;;;;;;7.63;2.25;;;;;;;;;;5093930;28;20611;-65
2022/07/10 19:37:58;;;;;;;4.78;2.08;;;;;;;;;;5094381;28;20111;-64
2022/07/10 19:40:28;;;;;;;8.30;2.70;;;;;;;;;;5089758;28;20074;-65
2022/07/10 19:42:55;;;;;;;4.53;2.10;;;;;;;;;;5093420;28;20053;-66
2022/07/10 19:45:22;;;;;;;6.80;2.53;;;;;;;;;;5093791;28;20052;-65
2022/07/10 19:47:53;;;;;;;6.70;2.85;;;;;;;;;;5093502;28;20051;-65
2022/07/10 19:50:20;;;;;;;6.45;2.22;;;;;;;;;;5094905;28;20056;-66
2022/07/10 19:52:47;;;;;;;7.22;2.40;;;;;;;;;;5093534;28;20152;-64
2022/07/10 19:55:13;;;;;;;4.70;2.38;;;;;;;;;;5093685;28;20533;-64
2022/07/10 19:57:41;;;;;;;5.70;2.47;;;;;;;;;;5092167;28;20143;-65
2022/07/10 20:00:09;;;;;;;8.88;2.45;;;;;;;;;;5097161;28;20048;-65
2022/07/10 20:02:36;;;;;;;4.00;2.05;;;;;;;;;;5099349;27;20059;-66
2022/07/10 20:05:02;;;;;;;9.55;3.05;;;;;;;;;;5093881;28;20059;-65
2022/07/10 20:07:29;;;;;;;9.68;2.83;;;;;;;;;;5091983;28;20062;-65
2022/07/10 20:09:55;;;;;;;5.43;2.65;;;;;;;;;;5084133;28;20546;-65
2022/07/10 20:12:21;;;;;;;2.88;2.15;;;;;;;;;;5087230;28;20056;-64
2022/07/10 20:14:48;;;;;;;6.05;2.53;;;;;;;;;;5088015;28;20060;-64
2022/07/10 20:17:14;;;;;;;7.60;2.55;;;;;;;;;;5091734;28;20053;-66
2022/07/10 20:19:41;;;;;;;5.32;1.98;;;;;;;;;;5090043;28;20142;-64
2022/07/10 20:22:08;;;;;;;9.40;2.10;;;;;;;;;;5098284;27;20049;-65
2022/07/10 20:24:34;;;;;;;12.02;2.30;;;;;;;;;;5092570;28;20152;-65
2022/07/10 20:27:02;;;;;;;6.30;2.40;;;;;;;;;;5093440;28;20053;-65
2022/07/10 20:29:28;;;;;;;5.75;2.30;;;;;;;;;;5087149;28;20151;-66
2022/07/10 20:31:54;;;;;;;7.53;2.70;;;;;;;;;;5091722;28;20131;-65
2022/07/10 20:34:21;;;;;;;6.63;2.47;;;;;;;;;;5104675;28;20591;-64
2022/07/10 20:39:32;;;;;;;3.85;2.45;;;;;;;;;;5091821;28;20143;-65
2022/07/10 20:41:59;;;;;;;8.00;2.47;;;;;;;;;;5083394;28;20055;-64
2022/07/10 20:44:25;;;;;;;6.47;2.40;;;;;;;;;;5094620;27;20522;-65
2022/07/10 20:46:51;;;;;;;5.13;2.20;;;;;;;;;;5091647;28;20053;-65
2022/07/10 20:49:18;;;;;;;6.95;2.90;;;;;;;;;;5089955;28;20148;-65
2022/07/10 20:51:44;;;;;;;5.45;2.95;;;;;;;;;;5089485;28;20048;-67
2022/07/10 20:54:10;;;;;;;8.00;2.90;;;;;;;;;;5097168;28;20091;-65
2022/07/10 20:56:37;;;;;;;9.60;2.45;;;;;;;;;;5090708;28;20068;-64
2022/07/10 20:59:03;;;;;;;9.02;2.97;;;;;;;;;;5088364;28;20143;-65
2022/07/10 21:01:30;;;;;;;6.18;2.10;;;;;;;;;;5097818;27;20136;-65
2022/07/10 21:03:58;;;;;;;8.93;3.10;;;;;;;;;;5091047;28;20052;-65
2022/07/10 21:06:24;;;;;;;10.63;2.80;;;;;;;;;;5091805;28;20147;-68
2022/07/10 21:08:50;;;;;;;7.75;2.83;;;;;;;;;;5091124;28;20147;-65
2022/07/10 21:11:17;;;;;;;9.05;3.17;;;;;;;;;;5088448;28;20186;-66
2022/07/10 21:13:43;;;;;;;8.43;3.25;;;;;;;;;;5089876;28;20049;-66
2022/07/10 21:16:10;;;;;;;6.50;2.63;;;;;;;;;;5086998;28;20084;-66
2022/07/10 21:18:37;;;;;;;8.43;3.28;;;;;;;;;;5093924;28;20510;-64
2022/07/10 21:21:03;;;;;;;8.50;2.40;;;;;;;;;;5093405;27;20102;-64
2022/07/10 21:23:30;;;;;;;7.32;3.00;;;;;;;;;;5086169;28;20053;-65
2022/07/10 21:25:56;;;;;;;7.28;2.53;;;;;;;;;;5090166;28;20532;-65
2022/07/10 21:28:22;;;;;;;4.65;2.28;;;;;;;;;;5092162;28;20048;-65
2022/07/10 21:30:49;;;;;;;6.13;2.63;;;;;;;;;;5090976;27;20147;-65